createdAt,value
2019-04-04T00:01:19.272Z,7.80
2019-04-04T00:03:51.517Z,7.33
2019-04-04T00:06:20.320Z,8.83
2019-04-04T00:08:49.784Z,8.23
2019-04-04T00:11:19.178Z,7.87
2019-04-04T00:13:49.368Z,8.43
2019-04-04T00:16:19.546Z,8.37
2019-04-04T00:18:49.439Z,7.90
2019-04-04T00:21:18.902Z,7.87
2019-04-04T00:23:49.626Z,9.20
2019-04-04T00:26:19.081Z,8.27
2019-04-04T00:28:48.498Z,8.10
2019-04-04T00:31:19.537Z,7.80
2019-04-04T00:33:49.969Z,10.20
2019-04-04T00:36:19.722Z,6.50
2019-04-04T00:38:49.188Z,8.00
2019-04-04T00:41:18.641Z,8.33
2019-04-04T00:43:47.464Z,8.30
2019-04-04T00:46:16.912Z,7.77
2019-04-04T00:48:46.418Z,7.73
2019-04-04T00:51:16.981Z,8.77
2019-04-04T00:53:46.449Z,8.40
2019-04-04T00:56:16.025Z,8.37
2019-04-04T00:58:47.005Z,8.23
2019-04-04T01:01:16.899Z,7.93
2019-04-04T01:03:46.330Z,8.27
2019-04-04T01:06:15.785Z,8.37
2019-04-04T01:08:45.349Z,7.90
2019-04-04T01:11:14.829Z,7.20
2019-04-04T01:13:44.290Z,7.07
2019-04-04T01:16:14.159Z,7.17
2019-04-04T01:18:44.861Z,8.50
2019-04-04T01:21:14.383Z,7.50
2019-04-04T01:23:43.842Z,8.73
2019-04-04T01:26:13.270Z,8.13
2019-04-04T01:28:43.161Z,9.00
2019-04-04T01:31:14.644Z,9.37
2019-04-04T01:33:43.705Z,8.43
2019-04-04T01:36:13.141Z,8.30
2019-04-04T01:38:42.933Z,8.53
2019-04-04T01:41:12.422Z,7.60
2019-04-04T01:43:42.127Z,7.70
2019-04-04T01:46:12.974Z,7.77
2019-04-04T01:48:43.068Z,7.83
2019-04-04T01:51:12.664Z,9.33
2019-04-04T01:53:42.147Z,7.40
2019-04-04T01:56:11.591Z,8.53
2019-04-04T01:58:41.858Z,8.40
2019-04-04T02:01:12.165Z,8.87
2019-04-04T02:03:43.771Z,7.33
2019-04-04T02:06:14.509Z,8.63
2019-04-04T02:08:44.177Z,7.47
2019-04-04T02:11:13.662Z,7.40
2019-04-04T02:13:43.131Z,8.23
2019-04-04T02:16:13.071Z,7.53
2019-04-04T02:18:44.989Z,8.10
2019-04-04T02:21:14.425Z,6.50
2019-04-04T02:23:43.839Z,7.40
2019-04-04T02:26:13.297Z,9.03
2019-04-04T02:28:42.183Z,7.03
2019-04-04T02:31:11.765Z,7.37
2019-04-04T02:33:41.771Z,8.27
2019-04-04T02:36:16.390Z,8.70
2019-04-04T02:38:42.765Z,7.63
2019-04-04T02:41:14.997Z,8.40
2019-04-04T02:43:43.305Z,8.67
2019-04-04T02:46:12.734Z,8.90
2019-04-04T02:48:42.166Z,7.67
2019-04-04T02:51:13.953Z,7.93
2019-04-04T02:53:43.916Z,8.70
2019-04-04T02:56:15.144Z,7.83
2019-04-04T02:58:46.522Z,7.23
2019-04-04T03:01:15.230Z,8.47
2019-04-04T03:03:44.727Z,8.07
2019-04-04T03:06:14.181Z,8.17
2019-04-04T03:08:44.111Z,8.10
2019-04-04T03:11:15.600Z,7.43
2019-04-04T03:13:45.063Z,8.50
2019-04-04T03:16:14.790Z,8.87
2019-04-04T03:18:44.208Z,7.90
2019-04-04T03:21:15.778Z,9.23
2019-04-04T03:23:45.227Z,6.83
2019-04-04T03:26:19.083Z,7.83
2019-04-04T03:28:45.894Z,7.77
2019-04-04T03:31:14.785Z,7.60
2019-04-04T03:33:44.598Z,6.33
2019-04-04T03:36:14.684Z,7.60
2019-04-04T03:38:47.196Z,8.27
2019-04-04T03:41:15.746Z,8.60
2019-04-04T03:43:48.002Z,8.87
2019-04-04T03:46:16.349Z,7.93
2019-04-04T03:48:49.852Z,8.07
2019-04-04T03:51:16.870Z,7.63
2019-04-04T03:53:52.881Z,7.87
2019-04-04T03:56:22.660Z,8.30
2019-04-04T03:58:52.100Z,8.00
2019-04-04T04:01:21.559Z,8.97
2019-04-04T04:03:54.765Z,9.23
2019-04-04T04:06:22.759Z,8.77
2019-04-04T04:08:54.694Z,9.10
2019-04-04T04:11:23.282Z,9.13
2019-04-04T04:13:53.077Z,8.27
2019-04-04T04:16:22.536Z,8.20
2019-04-04T04:18:54.427Z,8.17
2019-04-04T04:21:23.084Z,8.93
2019-04-04T04:23:56.253Z,7.90
2019-04-04T04:26:24.116Z,8.60
2019-04-04T04:28:53.749Z,8.30
2019-04-04T04:31:23.406Z,8.70
2019-04-04T04:33:52.871Z,8.43
2019-04-04T04:36:22.334Z,7.73
2019-04-04T04:38:52.169Z,8.57
2019-04-04T04:41:22.427Z,8.83
2019-04-04T04:43:51.906Z,8.43
2019-04-04T04:46:20.766Z,8.60
2019-04-04T04:48:50.173Z,8.77
2019-04-04T04:51:19.620Z,7.33
2019-04-04T04:53:50.551Z,7.90
2019-04-04T04:56:19.640Z,7.33
2019-04-04T04:58:49.100Z,9.57
2019-04-04T05:01:18.338Z,7.40
2019-04-04T05:03:50.598Z,6.67
2019-04-04T05:06:19.451Z,8.07
2019-04-04T05:08:48.874Z,7.93
2019-04-04T05:11:19.162Z,10.20
2019-04-04T05:13:49.356Z,7.97
2019-04-04T05:16:19.003Z,8.03
2019-04-04T05:18:48.583Z,8.90
2019-04-04T05:21:24.759Z,8.10
2019-04-04T05:23:48.767Z,8.03
2019-04-04T05:26:18.220Z,7.83
2019-04-04T05:28:47.661Z,6.43
2019-04-04T05:31:18.243Z,8.80
2019-04-04T05:33:47.705Z,7.83
2019-04-04T05:36:17.137Z,7.87
2019-04-04T05:38:47.234Z,7.57
2019-04-04T05:41:16.721Z,7.87
2019-04-04T05:43:45.670Z,7.17
2019-04-04T05:46:14.626Z,8.77
2019-04-04T05:48:43.459Z,8.87
2019-04-04T05:51:14.935Z,8.53
2019-04-04T05:53:45.310Z,7.43
2019-04-04T05:56:15.240Z,7.23
2019-04-04T05:58:44.760Z,7.57
2019-04-04T06:01:15.295Z,8.23
2019-04-04T06:03:46.993Z,8.83
2019-04-04T06:06:14.717Z,8.70
2019-04-04T06:08:43.589Z,7.83
2019-04-04T06:11:12.859Z,7.30
2019-04-04T06:13:44.638Z,9.90
2019-04-04T06:16:15.382Z,7.93
2019-04-04T06:18:44.300Z,8.33
2019-04-04T06:21:13.403Z,8.70
2019-04-04T06:23:42.864Z,9.30
2019-04-04T06:26:11.801Z,6.47
2019-04-04T06:28:40.706Z,8.43
2019-04-04T06:31:09.564Z,7.90
2019-04-04T06:33:38.640Z,8.53
2019-04-04T06:36:08.035Z,9.27
2019-04-04T06:38:37.163Z,9.90
2019-04-04T06:41:06.249Z,9.85
2019-04-04T06:43:35.144Z,10.03
2019-04-04T06:46:04.934Z,9.98
2019-04-04T06:48:34.005Z,9.78
2019-04-04T06:51:03.096Z,9.80
2019-04-04T06:53:32.452Z,9.88
2019-04-04T06:56:01.683Z,9.93
2019-04-04T06:58:30.761Z,9.63
2019-04-04T07:01:00.028Z,10.18
2019-04-04T07:03:29.044Z,10.18
2019-04-04T07:05:57.986Z,10.48
2019-04-04T07:08:26.852Z,9.90
2019-04-04T07:10:58.141Z,8.77
2019-04-04T07:13:27.957Z,8.40
2019-04-04T07:16:05.989Z,9.50
2019-04-04T07:18:27.648Z,10.72
2019-04-04T07:20:56.648Z,10.70
2019-04-04T07:23:28.329Z,12.23
2019-04-04T07:25:56.740Z,10.17
2019-04-04T07:28:25.596Z,9.27
2019-04-04T07:30:54.834Z,10.23
2019-04-04T07:33:23.879Z,12.67
2019-04-04T07:35:53.094Z,8.50
2019-04-04T07:38:22.252Z,9.50
2019-04-04T07:40:51.800Z,9.30
2019-04-04T07:43:20.740Z,8.30
2019-04-04T07:45:49.976Z,9.10
2019-04-04T07:48:19.148Z,10.10
2019-04-04T07:50:51.346Z,9.13
2019-04-04T07:53:19.460Z,8.33
2019-04-04T07:55:48.950Z,10.00
2019-04-04T07:58:18.380Z,10.43
2019-04-04T08:00:47.284Z,9.07
2019-04-04T08:03:16.745Z,9.90
2019-04-04T08:05:45.767Z,9.17
2019-04-04T08:08:15.211Z,10.07
2019-04-04T08:10:44.659Z,10.40
2019-04-04T08:13:15.795Z,8.63
2019-04-04T08:15:46.494Z,11.17
2019-04-04T08:18:15.987Z,12.13
2019-04-04T08:20:45.426Z,9.93
2019-04-04T08:23:15.223Z,9.17
2019-04-04T08:25:44.698Z,8.97
2019-04-04T08:28:14.184Z,10.70
2019-04-04T08:30:43.745Z,12.03
2019-04-04T08:33:13.183Z,9.90
2019-04-04T08:35:42.664Z,10.53
2019-04-04T08:38:12.381Z,10.67
2019-04-04T08:40:41.900Z,10.97
2019-04-04T08:43:12.543Z,10.43
2019-04-04T08:45:42.049Z,10.00
2019-04-04T08:48:11.563Z,10.10
2019-04-04T08:50:41.085Z,10.73
2019-04-04T08:53:11.005Z,10.00
2019-04-04T08:55:40.449Z,10.27
2019-04-04T08:58:10.117Z,10.50
2019-04-04T09:00:39.535Z,10.37
2019-04-04T09:03:09.007Z,10.43
2019-04-04T09:05:38.655Z,10.57
2019-04-04T09:08:08.148Z,10.03
2019-04-04T09:10:37.627Z,10.27
2019-04-04T09:13:07.471Z,10.97
2019-04-04T09:15:36.939Z,10.83
2019-04-04T09:18:06.389Z,9.83
2019-04-04T09:20:35.951Z,9.80
2019-04-04T09:23:05.497Z,10.43
2019-04-04T09:25:34.956Z,9.53
2019-04-04T09:28:04.922Z,10.83
2019-04-04T09:30:34.349Z,9.67
2019-04-04T09:33:04.150Z,9.08
2019-04-04T09:35:33.627Z,10.77
2019-04-04T09:38:03.099Z,10.13
2019-04-04T09:40:32.740Z,11.68
2019-04-04T09:43:02.184Z,13.60
2019-04-04T09:45:31.729Z,9.85
2019-04-04T09:48:01.294Z,9.30
2019-04-04T09:50:30.820Z,9.93
2019-04-04T09:53:00.277Z,9.78
2019-04-04T09:55:29.986Z,10.53
2019-04-04T09:57:59.443Z,10.53
2019-04-04T10:00:28.901Z,10.48
2019-04-04T10:02:58.680Z,11.63
2019-04-04T10:05:28.100Z,10.23
2019-04-04T10:07:57.788Z,10.87
2019-04-04T10:10:27.318Z,10.32
2019-04-04T10:12:56.891Z,11.47
2019-04-04T10:15:26.615Z,10.78
2019-04-04T10:17:56.123Z,11.43
2019-04-04T10:20:25.642Z,10.23
2019-04-04T10:22:55.248Z,11.00
2019-04-04T10:25:24.744Z,10.53
2019-04-04T10:27:54.222Z,9.80
2019-04-04T10:30:24.052Z,10.63
2019-04-04T10:32:53.008Z,9.00
2019-04-04T10:35:22.547Z,12.37
2019-04-04T10:37:51.501Z,9.30
2019-04-04T10:40:20.833Z,10.27
2019-04-04T10:42:50.413Z,11.03
2019-04-04T10:45:19.309Z,10.13
2019-04-04T10:47:48.876Z,10.70
2019-04-04T10:50:19.024Z,11.03
2019-04-04T10:52:49.856Z,10.90
2019-04-04T10:55:19.687Z,10.03
2019-04-04T10:57:49.333Z,13.77
2019-04-04T11:00:18.917Z,10.73
2019-04-04T11:02:48.625Z,10.93
2019-04-04T11:05:18.150Z,10.32
2019-04-04T11:07:47.573Z,10.20
2019-04-04T11:10:17.359Z,10.40
2019-04-04T11:12:46.781Z,9.93
2019-04-04T11:15:16.188Z,10.53
2019-04-04T11:35:07.667Z,9.83
2019-04-04T11:37:36.681Z,11.00
2019-04-04T11:40:07.060Z,11.55
2019-04-04T11:42:36.522Z,11.12
2019-04-04T11:45:06.373Z,11.20
2019-04-04T11:47:35.841Z,12.25
2019-04-04T11:50:07.760Z,11.20
2019-04-04T11:52:36.922Z,11.12
2019-04-04T11:55:09.498Z,11.53
2019-04-04T11:57:38.900Z,11.33
2019-04-04T12:00:11.523Z,11.33
2019-04-04T12:02:41.025Z,11.28
2019-04-04T12:05:11.162Z,11.50
2019-04-04T12:07:40.592Z,10.32
2019-04-04T12:10:10.724Z,10.68
2019-04-04T12:12:40.326Z,10.10
2019-04-04T12:15:09.859Z,9.83
2019-04-04T12:17:39.372Z,9.85
2019-04-04T12:20:10.058Z,10.40
2019-04-04T12:27:36.264Z,10.20
2019-04-04T12:30:07.520Z,10.23
2019-04-04T12:32:37.684Z,12.05
2019-04-04T12:35:07.467Z,11.08
2019-04-04T12:37:36.953Z,10.53
2019-04-04T12:40:19.750Z,11.00
2019-04-04T12:42:39.203Z,11.70
2019-04-04T12:45:09.172Z,11.70
2019-04-04T12:47:38.664Z,11.83
2019-04-04T12:50:08.408Z,10.53
2019-04-04T12:52:38.374Z,11.30
2019-04-04T12:55:08.074Z,10.98
2019-04-04T12:57:37.646Z,11.05
2019-04-04T13:00:09.049Z,11.03
2019-04-04T13:02:38.574Z,10.03
2019-04-04T13:05:08.861Z,10.55
2019-04-04T13:07:39.186Z,10.98
2019-04-04T13:10:11.620Z,10.88
2019-04-04T13:12:41.904Z,10.60
2019-04-04T13:15:11.607Z,11.35
2019-04-04T13:17:43.077Z,11.00
2019-04-04T13:20:15.499Z,10.13
2019-04-04T13:22:45.057Z,11.50
2019-04-04T13:25:14.338Z,10.55
2019-04-04T13:27:44.105Z,11.30
2019-04-04T13:30:14.325Z,11.63
2019-04-04T13:32:44.098Z,11.28
2019-04-04T13:35:13.901Z,11.15
2019-04-04T13:37:43.457Z,11.30
2019-04-04T13:40:13.254Z,10.67
2019-04-04T13:42:42.775Z,10.78
2019-04-04T13:45:13.779Z,10.68
2019-04-04T13:47:43.370Z,11.18
2019-04-04T13:50:14.479Z,10.63
2019-04-04T13:52:43.935Z,10.55
2019-04-04T13:55:14.042Z,11.65
2019-04-04T13:57:47.295Z,11.12
2019-04-04T14:00:16.200Z,13.93
2019-04-04T14:02:45.723Z,14.38
2019-04-04T14:05:15.680Z,12.70
2019-04-04T14:07:45.125Z,10.90
2019-04-04T14:10:17.094Z,11.80
2019-04-04T14:12:46.072Z,12.65
2019-04-04T14:15:15.696Z,12.15
2019-04-04T14:17:45.919Z,12.00
2019-04-04T14:20:15.652Z,10.70
2019-04-04T14:22:45.075Z,10.90
2019-04-04T14:25:14.599Z,11.60
2019-04-04T14:27:44.234Z,11.25
2019-04-04T14:30:14.513Z,11.10
2019-04-04T14:32:44.878Z,12.18
2019-04-04T14:35:15.300Z,11.88
2019-04-04T14:37:46.249Z,12.30
2019-04-04T14:40:16.031Z,12.10
2019-04-04T14:42:45.593Z,12.33
2019-04-04T14:45:15.160Z,12.98
2019-04-04T14:47:44.092Z,11.83
2019-04-04T14:50:13.654Z,12.37
2019-04-04T14:52:43.432Z,12.58
2019-04-04T14:55:14.121Z,12.68
2019-04-04T14:57:43.687Z,12.30
2019-04-04T15:00:15.905Z,12.53
2019-04-04T15:02:45.401Z,12.00
2019-04-04T15:05:14.810Z,12.18
2019-04-04T15:07:43.675Z,12.00
2019-04-04T15:10:13.719Z,11.18
2019-04-04T15:12:42.668Z,12.33
2019-04-04T15:15:12.272Z,11.15
2019-04-04T15:17:41.732Z,12.78
2019-04-04T15:20:11.731Z,12.63
2019-04-04T15:22:40.802Z,12.03
2019-04-04T15:25:09.866Z,12.35
2019-04-04T15:27:39.661Z,12.20
2019-04-04T15:30:08.714Z,12.30
2019-04-04T15:32:37.580Z,12.90
2019-04-04T15:35:06.992Z,12.55
2019-04-04T15:37:35.923Z,13.00
2019-04-04T15:40:05.263Z,12.68
2019-04-04T15:42:34.335Z,11.93
2019-04-04T15:45:03.254Z,12.05
2019-04-04T15:47:32.209Z,12.65
2019-04-04T15:50:01.187Z,12.55
2019-04-04T15:52:30.372Z,11.53
2019-04-04T15:54:59.725Z,11.70
2019-04-04T15:57:28.820Z,11.85
2019-04-04T15:59:57.843Z,11.78
2019-04-04T16:02:26.769Z,12.33
2019-04-04T16:04:55.659Z,11.68
2019-04-04T16:07:24.675Z,12.20
2019-04-04T16:09:53.954Z,11.68
2019-04-04T16:12:23.119Z,12.53
2019-04-04T16:14:52.016Z,13.00
2019-04-04T16:17:21.043Z,12.60
2019-04-04T16:19:49.939Z,12.37
2019-04-04T16:22:19.051Z,12.80
2019-04-04T16:24:48.153Z,13.03
2019-04-04T16:27:17.043Z,15.88
2019-04-04T16:29:46.116Z,13.03
2019-04-04T16:32:15.085Z,12.55
2019-04-04T16:34:44.133Z,13.38
2019-04-04T16:37:13.587Z,12.28
2019-04-04T16:39:42.848Z,13.58
2019-04-04T16:42:11.722Z,13.53
2019-04-04T16:44:40.972Z,17.82
2019-04-04T16:47:09.864Z,15.20
2019-04-04T16:49:42.539Z,16.90
2019-04-04T16:52:12.080Z,14.95
2019-04-04T16:54:41.016Z,20.40
2019-04-04T16:57:10.164Z,37.03
2019-04-04T16:59:39.246Z,22.50
2019-04-04T17:02:08.356Z,18.83
2019-04-04T17:04:37.915Z,21.40
2019-04-04T17:07:07.025Z,16.15
2019-04-04T17:09:36.918Z,16.55
2019-04-04T17:12:14.946Z,17.45
2019-04-04T17:14:36.865Z,16.60
2019-04-04T17:17:05.868Z,15.23
2019-04-04T17:19:36.304Z,18.70
2019-04-04T17:22:05.271Z,27.93
2019-04-04T17:24:34.352Z,23.27
2019-04-04T17:27:03.279Z,20.73
2019-04-04T17:29:32.226Z,16.05
2019-04-04T17:32:01.141Z,15.70
2019-04-04T17:34:30.798Z,17.42
2019-04-04T17:37:00.006Z,14.27
2019-04-04T17:39:28.970Z,21.25
2019-04-04T17:41:57.933Z,15.87
2019-04-04T17:44:27.293Z,16.67
2019-04-04T17:46:56.793Z,15.88
2019-04-04T17:49:25.715Z,15.70
2019-04-04T17:51:55.300Z,16.30
2019-04-04T17:54:24.532Z,16.25
2019-04-04T17:56:53.644Z,16.63
2019-04-04T17:59:22.488Z,16.02
2019-04-04T18:01:51.410Z,18.02
2019-04-04T18:04:21.082Z,20.32
2019-04-04T18:06:50.284Z,14.90
2019-04-04T18:09:31.279Z,17.67
2019-04-04T18:11:50.666Z,14.85
2019-04-04T18:14:20.139Z,17.05
2019-04-04T18:16:49.339Z,15.48
2019-04-04T18:19:18.684Z,16.10
2019-04-04T18:21:47.895Z,14.70
2019-04-04T18:24:16.709Z,15.00
2019-04-04T18:26:46.260Z,14.87
2019-04-04T18:29:15.228Z,14.45
2019-04-04T18:31:44.729Z,15.65
2019-04-04T18:34:13.686Z,18.20
2019-04-04T18:36:42.723Z,15.45
2019-04-04T18:39:11.898Z,16.55
2019-04-04T18:41:41.557Z,15.68
2019-04-04T18:44:10.598Z,16.15
2019-04-04T18:46:39.663Z,14.90
2019-04-04T18:49:09.171Z,16.07
2019-04-04T18:51:38.637Z,13.93
2019-04-04T18:54:09.581Z,13.18
2019-04-04T18:56:38.556Z,15.13
2019-04-04T18:59:08.879Z,14.18
2019-04-04T19:01:38.362Z,17.85
2019-04-04T19:04:09.206Z,14.53
2019-04-04T19:06:38.731Z,12.98
2019-04-04T19:09:15.285Z,18.57
2019-04-04T19:11:40.746Z,16.75
2019-04-04T19:14:10.454Z,14.73
2019-04-04T19:16:40.259Z,16.93
2019-04-04T19:19:09.762Z,14.55
2019-04-04T19:21:38.766Z,16.42
2019-04-04T19:24:07.743Z,17.40
2019-04-04T19:26:36.883Z,14.85
2019-04-04T19:29:06.478Z,16.62
2019-04-04T19:31:35.354Z,13.98
2019-04-04T19:34:05.968Z,14.40
2019-04-04T19:36:35.418Z,14.90
2019-04-04T19:39:06.931Z,14.55
2019-04-04T19:41:38.044Z,14.10
2019-04-04T19:44:08.259Z,12.50
2019-04-04T19:46:37.878Z,14.23
2019-04-04T19:49:07.929Z,14.28
2019-04-04T19:51:40.124Z,15.58
2019-04-04T19:54:09.937Z,13.80
2019-04-04T19:56:39.480Z,14.28
2019-04-04T19:59:08.932Z,13.60
2019-04-04T20:01:38.465Z,14.23
2019-04-04T20:04:08.202Z,13.62
2019-04-04T20:06:37.696Z,12.85
2019-04-04T20:09:08.769Z,12.58
2019-04-04T20:11:38.265Z,13.28
2019-04-04T20:14:07.905Z,13.28
2019-04-04T20:16:37.356Z,15.40
2019-04-04T20:19:06.833Z,14.65
2019-04-04T20:21:37.061Z,15.05
2019-04-04T20:24:06.721Z,14.13
2019-04-04T20:26:36.391Z,12.93
2019-04-04T20:29:05.869Z,13.30
2019-04-04T20:31:35.393Z,13.70
2019-04-04T20:34:06.197Z,13.13
2019-04-04T20:36:36.053Z,12.03
2019-04-04T20:39:07.439Z,11.95
2019-04-04T20:41:37.226Z,13.88
2019-04-04T20:44:06.687Z,13.10
2019-04-04T20:46:36.246Z,11.95
2019-04-04T20:49:05.883Z,12.85
2019-04-04T20:51:35.398Z,13.07
2019-04-04T20:54:04.868Z,12.68
2019-04-04T20:56:34.470Z,11.70
2019-04-04T20:59:03.981Z,12.45
2019-04-04T21:01:33.407Z,12.55
2019-04-04T21:04:04.453Z,11.93
2019-04-04T21:06:34.073Z,12.23
2019-04-04T21:09:04.578Z,12.55
2019-04-04T21:11:34.040Z,12.37
2019-04-04T21:14:03.506Z,12.63
2019-04-04T21:16:33.068Z,12.93
2019-04-04T21:19:02.731Z,12.55
2019-04-04T21:21:32.614Z,12.25
2019-04-04T21:24:02.098Z,12.73
2019-04-04T21:26:31.862Z,11.55
2019-04-04T21:29:01.320Z,12.07
2019-04-04T21:31:30.802Z,12.00
2019-04-04T21:33:59.676Z,12.40
2019-04-04T21:36:29.145Z,12.95
2019-04-04T21:38:58.610Z,11.97
2019-04-04T21:41:28.210Z,12.28
2019-04-04T21:44:08.292Z,12.45
2019-04-04T21:46:28.865Z,11.75
2019-04-04T21:48:58.301Z,12.03
2019-04-04T21:51:27.976Z,12.43
2019-04-04T21:53:57.630Z,11.73
2019-04-04T21:56:27.435Z,11.43
2019-04-04T21:58:56.895Z,12.05
2019-04-04T22:01:26.610Z,11.47
2019-04-04T22:03:56.198Z,11.60
2019-04-04T22:06:25.632Z,12.20
2019-04-04T22:08:55.249Z,11.45
2019-04-04T22:11:24.802Z,11.88
2019-04-04T22:13:54.252Z,11.88
2019-04-04T22:16:23.681Z,11.53
2019-04-04T22:18:53.349Z,10.88
2019-04-04T22:21:22.975Z,11.60
2019-04-04T22:23:52.853Z,11.78
2019-04-04T22:26:22.311Z,11.50
2019-04-04T22:28:51.927Z,11.73
2019-04-04T22:31:21.392Z,10.80
2019-04-04T22:33:50.859Z,11.60
2019-04-04T22:36:20.302Z,10.97
2019-04-04T22:38:50.049Z,10.80
2019-04-04T22:41:19.496Z,10.88
2019-04-04T22:43:48.930Z,11.10
2019-04-04T22:46:18.871Z,11.63
2019-04-04T22:48:48.281Z,12.45
2019-04-04T22:51:17.876Z,12.47
2019-04-04T22:53:48.074Z,11.68
2019-04-04T22:56:17.598Z,11.70
2019-04-04T22:58:47.069Z,10.60
2019-04-04T23:01:16.571Z,11.10
2019-04-04T23:03:46.138Z,11.07
2019-04-04T23:06:15.612Z,10.90
2019-04-04T23:08:45.050Z,10.65
2019-04-04T23:11:14.921Z,11.48
2019-04-04T23:13:44.339Z,11.30
2019-04-04T23:16:14.166Z,11.50
2019-04-04T23:18:43.641Z,11.45
2019-04-04T23:21:13.090Z,10.93
2019-04-04T23:23:42.927Z,11.08
2019-04-04T23:26:12.570Z,11.22
2019-04-04T23:28:43.055Z,11.25
2019-04-04T23:31:12.591Z,11.08
2019-04-04T23:33:42.051Z,11.30
2019-04-04T23:36:11.788Z,10.20
2019-04-04T23:38:41.287Z,11.40
2019-04-04T23:41:10.815Z,11.33
2019-04-04T23:43:40.518Z,10.82
2019-04-04T23:46:10.005Z,11.93
2019-04-04T23:48:39.462Z,10.78
2019-04-04T23:51:09.094Z,11.12
2019-04-04T23:53:39.612Z,11.90
2019-04-04T23:56:09.075Z,11.38
2019-04-04T23:58:38.774Z,10.35
